AAL1958 SULS-SABE
Flight info
| Callsign | AAL1958 |
|---|---|
| Flight time | 0h 40m |
| Altitude | 240 |
| Route | DAGUS UGIMI UGIMI8Q VANAR |
| Aircraft | B738/M-VGDW/C |
Departure
| Time | 2026-04-30 22:02 |
|---|---|
| Airport | Capitan Corbeta CA Curbelo International Airport (SULS) |
Arrival
| Time | 2026-04-30 22:43 |
|---|---|
| Airport | Aeroparque Jorge Newbery (SABE) |
| Time | Latitude | Longitude | Altitude | Speed | Heading |
|---|---|---|---|---|---|
| 2026-04-30 21:58 | -34.85932 | -55.09743 | 95 ft | 0 kts | 164° |
| 2026-04-30 22:00 | -34.85935 | -55.09742 | 95 ft | 1 kts | 172° |
| 2026-04-30 22:00 | -34.85883 | -55.09822 | 95 ft | 15 kts | 340° |
| 2026-04-30 22:00 | -34.85760 | -55.09868 | 93 ft | 21 kts | 340° |
| 2026-04-30 22:01 | -34.85634 | -55.09851 | 90 ft | 19 kts | 65° |
| 2026-04-30 22:01 | -34.85557 | -55.09557 | 86 ft | 51 kts | 73° |
| 2026-04-30 22:01 | -34.85457 | -55.09184 | 81 ft | 30 kts | 76° |
| 2026-04-30 22:01 | -34.85450 | -55.09011 | 78 ft | 8 kts | 60° |
| 2026-04-30 22:02 | -34.85428 | -55.09047 | 78 ft | 16 kts | 265° |
| 2026-04-30 22:02 | -34.85550 | -55.09544 | 86 ft | 110 kts | 252° |
| 2026-04-30 22:02 | -34.85875 | -55.10653 | 571 ft | 156 kts | 251° |
| 2026-04-30 22:02 | -34.86242 | -55.11980 | 1346 ft | 189 kts | 255° |
| 2026-04-30 22:03 | -34.86537 | -55.13629 | 2433 ft | 211 kts | 261° |
| 2026-04-30 22:03 | -34.86714 | -55.15323 | 3839 ft | 215 kts | 264° |
| 2026-04-30 22:03 | -34.86924 | -55.17252 | 4513 ft | 252 kts | 262° |
| 2026-04-30 22:03 | -34.87268 | -55.19533 | 5105 ft | 287 kts | 258° |
| 2026-04-30 22:04 | -34.87701 | -55.21707 | 7208 ft | 263 kts | 256° |
| 2026-04-30 22:04 | -34.88192 | -55.23701 | 8748 ft | 255 kts | 253° |
| 2026-04-30 22:04 | -34.89361 | -55.28346 | 10087 ft | 304 kts | 254° |
| 2026-04-30 22:05 | -34.89938 | -55.30767 | 11305 ft | 305 kts | 257° |
| 2026-04-30 22:05 | -34.90284 | -55.33390 | 11778 ft | 330 kts | 264° |
| 2026-04-30 22:05 | -34.90598 | -55.36224 | 12512 ft | 344 kts | 260° |
| 2026-04-30 22:05 | -34.91048 | -55.39088 | 13448 ft | 350 kts | 259° |
| 2026-04-30 22:06 | -34.91542 | -55.41998 | 14420 ft | 354 kts | 259° |
| 2026-04-30 22:06 | -34.92556 | -55.47864 | 16284 ft | 359 kts | 259° |
| 2026-04-30 22:06 | -34.93079 | -55.50831 | 17164 ft | 362 kts | 259° |
| 2026-04-30 22:07 | -34.93607 | -55.53817 | 18000 ft | 364 kts | 259° |
| 2026-04-30 22:07 | -34.94140 | -55.56830 | 18809 ft | 366 kts | 259° |
| 2026-04-30 22:07 | -34.94676 | -55.59855 | 19585 ft | 369 kts | 259° |
| 2026-04-30 22:07 | -34.95224 | -55.62936 | 20338 ft | 371 kts | 259° |
| 2026-04-30 22:08 | -34.95767 | -55.65996 | 21058 ft | 373 kts | 259° |
| 2026-04-30 22:08 | -34.96317 | -55.69099 | 21757 ft | 376 kts | 260° |
| 2026-04-30 22:08 | -34.96855 | -55.72133 | 22199 ft | 368 kts | 260° |
| 2026-04-30 22:08 | -34.97398 | -55.75214 | 22775 ft | 374 kts | 260° |
| 2026-04-30 22:09 | -34.97944 | -55.78319 | 23347 ft | 380 kts | 260° |
| 2026-04-30 22:09 | -34.98496 | -55.81451 | 23913 ft | 379 kts | 260° |
| 2026-04-30 22:09 | -34.99049 | -55.84593 | 24008 ft | 382 kts | 260° |
| 2026-04-30 22:09 | -34.99608 | -55.87781 | 24021 ft | 383 kts | 260° |
| 2026-04-30 22:10 | -35.00162 | -55.90944 | 24020 ft | 382 kts | 260° |
| 2026-04-30 22:10 | -35.00721 | -55.94138 | 24020 ft | 382 kts | 260° |
| 2026-04-30 22:10 | -35.01272 | -55.97293 | 24020 ft | 382 kts | 260° |
| 2026-04-30 22:10 | -35.01822 | -56.00451 | 24020 ft | 382 kts | 260° |
| 2026-04-30 22:11 | -35.02917 | -56.06751 | 24020 ft | 382 kts | 260° |
| 2026-04-30 22:11 | -35.03321 | -56.09952 | 24019 ft | 380 kts | 267° |
| 2026-04-30 22:11 | -35.03411 | -56.13147 | 24019 ft | 380 kts | 271° |
| 2026-04-30 22:12 | -35.03330 | -56.16373 | 24020 ft | 379 kts | 274° |
| 2026-04-30 22:12 | -35.03148 | -56.19593 | 24020 ft | 379 kts | 275° |
| 2026-04-30 22:12 | -35.02965 | -56.22765 | 24020 ft | 379 kts | 275° |
| 2026-04-30 22:12 | -35.02776 | -56.25986 | 24020 ft | 379 kts | 275° |
| 2026-04-30 22:13 | -35.02575 | -56.29162 | 24020 ft | 379 kts | 275° |
| 2026-04-30 22:13 | -35.02361 | -56.32377 | 24020 ft | 379 kts | 275° |
| 2026-04-30 22:13 | -35.02142 | -56.35590 | 24020 ft | 379 kts | 275° |
| 2026-04-30 22:13 | -35.01920 | -56.38793 | 24020 ft | 379 kts | 275° |
| 2026-04-30 22:14 | -35.01696 | -56.41986 | 24020 ft | 379 kts | 275° |
| 2026-04-30 22:14 | -35.01470 | -56.45166 | 24020 ft | 379 kts | 275° |
| 2026-04-30 22:14 | -35.01239 | -56.48386 | 24019 ft | 379 kts | 275° |
| 2026-04-30 22:14 | -35.01010 | -56.51569 | 24020 ft | 379 kts | 275° |
| 2026-04-30 22:15 | -35.00778 | -56.54769 | 24020 ft | 379 kts | 275° |
| 2026-04-30 22:15 | -35.00544 | -56.57969 | 24020 ft | 379 kts | 275° |
| 2026-04-30 22:15 | -35.00312 | -56.61133 | 24020 ft | 379 kts | 275° |
| 2026-04-30 22:15 | -35.00077 | -56.64332 | 24020 ft | 379 kts | 275° |
| 2026-04-30 22:16 | -34.99836 | -56.67598 | 24020 ft | 379 kts | 276° |
| 2026-04-30 22:16 | -34.99599 | -56.70787 | 24020 ft | 379 kts | 276° |
| 2026-04-30 22:17 | -34.98885 | -56.80354 | 24020 ft | 379 kts | 276° |
| 2026-04-30 22:17 | -34.98643 | -56.83558 | 24020 ft | 379 kts | 276° |
| 2026-04-30 22:17 | -34.98217 | -56.89947 | 24019 ft | 379 kts | 272° |
| 2026-04-30 22:18 | -34.98215 | -56.93156 | 24020 ft | 380 kts | 270° |
| 2026-04-30 22:18 | -34.98234 | -56.99561 | 24020 ft | 380 kts | 271° |
| 2026-04-30 22:19 | -34.98210 | -57.06025 | 24020 ft | 380 kts | 271° |
| 2026-04-30 22:19 | -34.98199 | -57.09240 | 24020 ft | 380 kts | 271° |
| 2026-04-30 22:19 | -34.98172 | -57.15631 | 24020 ft | 380 kts | 271° |
| 2026-04-30 22:20 | -34.98156 | -57.18848 | 24020 ft | 380 kts | 271° |
| 2026-04-30 22:20 | -34.98122 | -57.25288 | 24020 ft | 380 kts | 271° |
| 2026-04-30 22:20 | -34.98103 | -57.28506 | 24020 ft | 380 kts | 271° |
| 2026-04-30 22:21 | -34.98084 | -57.31681 | 24020 ft | 380 kts | 271° |
| 2026-04-30 22:21 | -34.98064 | -57.34902 | 24020 ft | 380 kts | 271° |
| 2026-04-30 22:21 | -34.98042 | -57.38116 | 24020 ft | 380 kts | 271° |
| 2026-04-30 22:21 | -34.98020 | -57.41317 | 24020 ft | 380 kts | 271° |
| 2026-04-30 22:22 | -34.97997 | -57.44567 | 24020 ft | 380 kts | 271° |
| 2026-04-30 22:22 | -34.97973 | -57.47780 | 24020 ft | 380 kts | 271° |
| 2026-04-30 22:22 | -34.97948 | -57.50974 | 24020 ft | 380 kts | 271° |
| 2026-04-30 22:22 | -34.97923 | -57.54181 | 24020 ft | 380 kts | 271° |
| 2026-04-30 22:23 | -34.97897 | -57.57386 | 24020 ft | 380 kts | 271° |
| 2026-04-30 22:23 | -34.97870 | -57.60603 | 24020 ft | 380 kts | 271° |
| 2026-04-30 22:23 | -34.97841 | -57.63831 | 24020 ft | 380 kts | 271° |
| 2026-04-30 22:23 | -34.97812 | -57.67026 | 24021 ft | 381 kts | 272° |
| 2026-04-30 22:24 | -34.97782 | -57.70299 | 24020 ft | 386 kts | 272° |
| 2026-04-30 22:24 | -34.97751 | -57.73570 | 24020 ft | 389 kts | 272° |
| 2026-04-30 22:24 | -34.97718 | -57.76886 | 24020 ft | 392 kts | 272° |
| 2026-04-30 22:24 | -34.97685 | -57.80211 | 24020 ft | 395 kts | 272° |
| 2026-04-30 22:25 | -34.97650 | -57.83586 | 23817 ft | 403 kts | 272° |
| 2026-04-30 22:25 | -34.97538 | -57.86988 | 23196 ft | 405 kts | 275° |
| 2026-04-30 22:25 | -34.97208 | -57.90354 | 22562 ft | 392 kts | 281° |
| 2026-04-30 22:25 | -34.96538 | -57.93513 | 21934 ft | 381 kts | 290° |
| 2026-04-30 22:26 | -34.94033 | -57.98990 | 20697 ft | 368 kts | 300° |
| 2026-04-30 22:26 | -34.92759 | -58.01659 | 20075 ft | 368 kts | 298° |
| 2026-04-30 22:26 | -34.91497 | -58.04366 | 19448 ft | 367 kts | 298° |
| 2026-04-30 22:27 | -34.90239 | -58.07045 | 18824 ft | 366 kts | 299° |
| 2026-04-30 22:27 | -34.88975 | -58.09735 | 18194 ft | 364 kts | 299° |
| 2026-04-30 22:27 | -34.86488 | -58.15040 | 16942 ft | 360 kts | 299° |
| 2026-04-30 22:28 | -34.84038 | -58.20270 | 15697 ft | 357 kts | 299° |
| 2026-04-30 22:28 | -34.82807 | -58.22897 | 15067 ft | 355 kts | 299° |
| 2026-04-30 22:29 | -34.79180 | -58.30627 | 13195 ft | 351 kts | 299° |
| 2026-04-30 22:29 | -34.77982 | -58.33178 | 12572 ft | 349 kts | 299° |
| 2026-04-30 22:30 | -34.73252 | -58.43227 | 10063 ft | 332 kts | 299° |
| 2026-04-30 22:31 | -34.69918 | -58.50291 | 8193 ft | 316 kts | 298° |
| 2026-04-30 22:32 | -34.66765 | -58.56959 | 7019 ft | 281 kts | 298° |
| 2026-04-30 22:32 | -34.64922 | -58.60852 | 7021 ft | 262 kts | 298° |
| 2026-04-30 22:33 | -34.62178 | -58.66642 | 6481 ft | 269 kts | 298° |
| 2026-04-30 22:33 | -34.60309 | -58.70578 | 5322 ft | 265 kts | 298° |
| 2026-04-30 22:34 | -34.57853 | -58.75744 | 5032 ft | 221 kts | 298° |
| 2026-04-30 22:35 | -34.55821 | -58.78427 | 4965 ft | 229 kts | 330° |
| 2026-04-30 22:36 | -34.50319 | -58.75757 | 3053 ft | 205 kts | 32° |
| 2026-04-30 22:36 | -34.49225 | -58.74717 | 3055 ft | 202 kts | 32° |
| 2026-04-30 22:37 | -34.46271 | -58.71656 | 2785 ft | 187 kts | 48° |
| 2026-04-30 22:37 | -34.45617 | -58.70293 | 2803 ft | 191 kts | 64° |
| 2026-04-30 22:37 | -34.45031 | -58.67052 | 3215 ft | 200 kts | 88° |
| 2026-04-30 22:38 | -34.45262 | -58.63846 | 3382 ft | 187 kts | 104° |
| 2026-04-30 22:38 | -34.45652 | -58.60691 | 3128 ft | 193 kts | 102° |
| 2026-04-30 22:39 | -34.46150 | -58.59256 | 3128 ft | 182 kts | 128° |
| 2026-04-30 22:39 | -34.48305 | -58.55213 | 2547 ft | 191 kts | 129° |
| 2026-04-30 22:40 | -34.50347 | -58.51500 | 1937 ft | 169 kts | 131° |
| 2026-04-30 22:41 | -34.52150 | -58.48098 | 1143 ft | 151 kts | 134° |
| 2026-04-30 22:41 | -34.53415 | -58.45968 | 801 ft | 160 kts | 134° |
| 2026-04-30 22:42 | -34.55848 | -58.41719 | 29 ft | 108 kts | 131° |
| 2026-04-30 22:43 | -34.56154 | -58.41014 | 27 ft | 13 kts | 43° |
| 2026-04-30 22:43 | -34.55976 | -58.41224 | 28 ft | 30 kts | 307° |
| 2026-04-30 22:44 | -34.55894 | -58.41316 | 27 ft | 1 kts | 335° |
| 2026-04-30 22:45 | -34.55759 | -58.41340 | 27 ft | 0 kts | 28° |